Turnback Creek (Missouri), Greenfield (06918460)

StateMissouriCurrentPotential (176 cfs)
RiverTurnback CreekFlood - The river is flooding. Obstacles can be treacherous or deadly. The river should be avoided at this stage for casual trips and definitely for the inexperienced. Trips should be attempted only with protective gear and equipment.Flood(none)
Updated2019-12-13 19:30 (1 hour ago)High - The river is high and potentially dangerous, especially for the young and / or inexperienced. Normal stream obstacles are sometimes difficult to navigate. Extended distances can be attempted, but canoe travel may not be advisable.High(none)
Discharge176 cfs (median: 127 cfs)Good - Conditions are ideal for a canoe or kayak. Boats typically will drag on fewer than one-quarter of riffles, if at all, and portages are unnecessary or rare. Normal float lengths can be attempted without a problem.Good(none)
Height5.63 feetLow - River is low but can still be floated. Some riffles are okay but most come with significant dragging and might need a portage. Float lengths should be reduced to accommodate low flow, dragging, and portages.Low(none)
TrendSteady (falling over 24 hours)Poor - River is too low to float comfortably. Most or all riffles will drag or must be portaged and some obstacles (such as slick shelf rock) cause undue problems. Avoid the river at this stage for casual paddling trips.Poor(none)
USGSExternal icon USGS Site for Greenfield (06918460)LocationExternal icon Google Maps

Trending Data

Plot Image
ObservationHeightDischargeMaximum
Discharge
Minimum
Discharge
Mean
Discharge
P05P10P20P25P50
(Median)
P75P80P90P95
2019-12-13 19:30 5.63 176 1030 (1986) 18 (2017) 222 23 31 38 57 127 349 446 555 628
2019-12-13 18:30 5.63 176 1030 (1986) 18 (2017) 222 23 31 38 57 127 349 446 555 628
2019-12-13 17:30 5.63 176 1030 (1986) 18 (2017) 222 23 31 38 57 127 349 446 555 628
2019-12-13 16:30 5.63 176 1030 (1986) 18 (2017) 222 23 31 38 57 127 349 446 555 628
2019-12-13 15:30 5.64 178 1030 (1986) 18 (2017) 222 23 31 38 57 127 349 446 555 628
2019-12-13 14:30 5.65 180 1030 (1986) 18 (2017) 222 23 31 38 57 127 349 446 555 628
2019-12-13 13:30 5.64 178 1030 (1986) 18 (2017) 222 23 31 38 57 127 349 446 555 628
2019-12-13 12:30 5.64 178 1030 (1986) 18 (2017) 222 23 31 38 57 127 349 446 555 628
2019-12-12 21:30 5.66 182 1280 (1986) 18 (2017) 224 24 30 39 57 127 301 372 612 654
2019-12-12 20:30 5.66 182 1280 (1986) 18 (2017) 224 24 30 39 57 127 301 372 612 654
2019-12-12 19:30 5.66 182 1280 (1986) 18 (2017) 224 24 30 39 57 127 301 372 612 654
2019-12-12 18:30 5.66 182 1280 (1986) 18 (2017) 224 24 30 39 57 127 301 372 612 654
2019-12-12 17:30 5.67 184 1280 (1986) 18 (2017) 224 24 30 39 57 127 301 372 612 654
2019-12-12 16:30 5.67 184 1280 (1986) 18 (2017) 224 24 30 39 57 127 301 372 612 654
2019-12-12 15:30 5.67 184 1280 (1986) 18 (2017) 224 24 30 39 57 127 301 372 612 654
2019-12-12 14:30 5.68 187 1280 (1986) 18 (2017) 224 24 30 39 57 127 301 372 612 654
2019-12-12 13:30 5.68 187 1280 (1986) 18 (2017) 224 24 30 39 57 127 301 372 612 654
2019-12-12 12:30 5.68 187 1280 (1986) 18 (2017) 224 24 30 39 57 127 301 372 612 654
2019-12-12 11:30 5.68 187 1280 (1986) 18 (2017) 224 24 30 39 57 127 301 372 612 654
2019-12-12 10:30 5.68 187 1280 (1986) 18 (2017) 224 24 30 39 57 127 301 372 612 654
2019-12-12 09:30 5.69 189 1280 (1986) 18 (2017) 224 24 30 39 57 127 301 372 612 654
2019-12-12 08:30 5.69 189 1280 (1986) 18 (2017) 224 24 30 39 57 127 301 372 612 654
2019-12-12 07:30 5.69 189 1280 (1986) 18 (2017) 224 24 30 39 57 127 301 372 612 654
2019-12-12 06:30 5.69 189 1280 (1986) 18 (2017) 224 24 30 39 57 127 301 372 612 654
2019-12-12 05:30 5.69 189 1280 (1986) 18 (2017) 224 24 30 39 57 127 301 372 612 654
2019-12-12 04:30 5.69 189 1280 (1986) 18 (2017) 224 24 30 39 57 127 301 372 612 654
2019-12-12 03:30 5.69 189 1280 (1986) 18 (2017) 224 24 30 39 57 127 301 372 612 654
2019-12-12 02:30 5.69 189 1280 (1986) 18 (2017) 224 24 30 39 57 127 301 372 612 654
2019-12-12 01:30 5.70 191 1280 (1986) 18 (2017) 224 24 30 39 57 127 301 372 612 654
2019-12-12 00:30 5.70 191 1280 (1986) 18 (2017) 224 24 30 39 57 127 301 372 612 654
2019-12-11 23:30 5.70 191 1700 (1986) 18 (2017) 239 24 30 41 47 130 299 389 696 833
2019-12-11 22:30 5.71 193 1700 (1986) 18 (2017) 239 24 30 41 47 130 299 389 696 833
2019-12-11 21:30 5.71 193 1700 (1986) 18 (2017) 239 24 30 41 47 130 299 389 696 833
2019-12-11 20:30 5.71 193 1700 (1986) 18 (2017) 239 24 30 41 47 130 299 389 696 833
2019-12-11 19:30 5.71 193 1700 (1986) 18 (2017) 239 24 30 41 47 130 299 389 696 833
2019-12-11 18:30 5.71 193 1700 (1986) 18 (2017) 239 24 30 41 47 130 299 389 696 833
2019-12-11 17:30 5.71 193 1700 (1986) 18 (2017) 239 24 30 41 47 130 299 389 696 833
2019-12-11 16:30 5.71 193 1700 (1986) 18 (2017) 239 24 30 41 47 130 299 389 696 833
2019-12-11 15:30 5.72 195 1700 (1986) 18 (2017) 239 24 30 41 47 130 299 389 696 833
2019-12-11 14:30 5.72 195 1700 (1986) 18 (2017) 239 24 30 41 47 130 299 389 696 833
2019-12-11 13:30 5.73 197 1700 (1986) 18 (2017) 239 24 30 41 47 130 299 389 696 833
2019-12-11 12:30 5.73 197 1700 (1986) 18 (2017) 239 24 30 41 47 130 299 389 696 833
2019-12-11 11:30 5.73 197 1700 (1986) 18 (2017) 239 24 30 41 47 130 299 389 696 833
2019-12-11 10:30 5.74 200 1700 (1986) 18 (2017) 239 24 30 41 47 130 299 389 696 833
2019-12-11 09:30 5.73 197 1700 (1986) 18 (2017) 239 24 30 41 47 130 299 389 696 833
2019-12-11 08:30 5.74 200 1700 (1986) 18 (2017) 239 24 30 41 47 130 299 389 696 833
2019-12-11 07:30 5.74 200 1700 (1986) 18 (2017) 239 24 30 41 47 130 299 389 696 833
2019-12-11 06:30 5.75 202 1700 (1986) 18 (2017) 239 24 30 41 47 130 299 389 696 833
2019-12-11 05:30 5.74 200 1700 (1986) 18 (2017) 239 24 30 41 47 130 299 389 696 833
2019-12-11 04:30 5.75 202 1700 (1986) 18 (2017) 239 24 30 41 47 130 299 389 696 833
2019-12-11 03:30 5.74 200 1700 (1986) 18 (2017) 239 24 30 41 47 130 299 389 696 833
2019-12-11 02:30 5.75 202 1700 (1986) 18 (2017) 239 24 30 41 47 130 299 389 696 833
2019-12-11 01:30 5.75 202 1700 (1986) 18 (2017) 239 24 30 41 47 130 299 389 696 833
2019-12-11 00:30 5.75 202 1700 (1986) 18 (2017) 239 24 30 41 47 130 299 389 696 833
2019-12-10 23:30 5.75 202 938 (1972) 18 (2017) 226 23 29 40 46 122 316 360 743 839
2019-12-10 22:30 5.76 204 938 (1972) 18 (2017) 226 23 29 40 46 122 316 360 743 839
2019-12-10 21:30 5.76 204 938 (1972) 18 (2017) 226 23 29 40 46 122 316 360 743 839
2019-12-10 20:30 5.76 204 938 (1972) 18 (2017) 226 23 29 40 46 122 316 360 743 839
2019-12-10 19:30 5.76 204 938 (1972) 18 (2017) 226 23 29 40 46 122 316 360 743 839
2019-12-10 18:30 5.76 204 938 (1972) 18 (2017) 226 23 29 40 46 122 316 360 743 839
2019-12-10 17:30 5.77 206 938 (1972) 18 (2017) 226 23 29 40 46 122 316 360 743 839
2019-12-10 16:30 5.77 206 938 (1972) 18 (2017) 226 23 29 40 46 122 316 360 743 839
2019-12-10 15:30 5.77 206 938 (1972) 18 (2017) 226 23 29 40 46 122 316 360 743 839
2019-12-10 14:30 5.78 209 938 (1972) 18 (2017) 226 23 29 40 46 122 316 360 743 839
2019-12-10 13:30 5.79 211 938 (1972) 18 (2017) 226 23 29 40 46 122 316 360 743 839
2019-12-10 12:30 5.78 209 938 (1972) 18 (2017) 226 23 29 40 46 122 316 360 743 839
2019-12-10 11:30 5.79 211 938 (1972) 18 (2017) 226 23 29 40 46 122 316 360 743 839
2019-12-10 10:30 5.80 213 938 (1972) 18 (2017) 226 23 29 40 46 122 316 360 743 839
2019-12-10 09:30 5.80 213 938 (1972) 18 (2017) 226 23 29 40 46 122 316 360 743 839
2019-12-10 08:30 5.81 216 938 (1972) 18 (2017) 226 23 29 40 46 122 316 360 743 839
2019-12-10 07:30 5.81 216 938 (1972) 18 (2017) 226 23 29 40 46 122 316 360 743 839
2019-12-10 06:30 5.81 216 938 (1972) 18 (2017) 226 23 29 40 46 122 316 360 743 839
2019-12-10 05:30 5.81 216 938 (1972) 18 (2017) 226 23 29 40 46 122 316 360 743 839
2019-12-10 04:30 5.81 216 938 (1972) 18 (2017) 226 23 29 40 46 122 316 360 743 839
2019-12-10 03:30 5.82 218 938 (1972) 18 (2017) 226 23 29 40 46 122 316 360 743 839
2019-12-10 02:30 5.82 218 938 (1972) 18 (2017) 226 23 29 40 46 122 316 360 743 839
2019-12-10 01:30 5.82 218 938 (1972) 18 (2017) 226 23 29 40 46 122 316 360 743 839
2019-12-10 00:30 5.82 218 938 (1972) 18 (2017) 226 23 29 40 46 122 316 360 743 839
2019-12-09 23:30 5.83 220 962 (2005) 19 (2017) 192 24 30 40 46 108 302 340 423 699
2019-12-09 22:30 5.83 220 962 (2005) 19 (2017) 192 24 30 40 46 108 302 340 423 699
2019-12-09 21:30 5.84 223 962 (2005) 19 (2017) 192 24 30 40 46 108 302 340 423 699
2019-12-09 20:30 5.83 220 962 (2005) 19 (2017) 192 24 30 40 46 108 302 340 423 699
2019-12-09 19:30 5.84 223 962 (2005) 19 (2017) 192 24 30 40 46 108 302 340 423 699
2019-12-09 18:30 5.84 223 962 (2005) 19 (2017) 192 24 30 40 46 108 302 340 423 699
2019-12-09 17:30 5.84 223 962 (2005) 19 (2017) 192 24 30 40 46 108 302 340 423 699
2019-12-09 16:30 5.85 225 962 (2005) 19 (2017) 192 24 30 40 46 108 302 340 423 699
2019-12-09 15:30 5.85 225 962 (2005) 19 (2017) 192 24 30 40 46 108 302 340 423 699
2019-12-09 14:30 5.86 228 962 (2005) 19 (2017) 192 24 30 40 46 108 302 340 423 699
2019-12-09 13:30 5.85 225 962 (2005) 19 (2017) 192 24 30 40 46 108 302 340 423 699
2019-12-09 12:30 5.85 225 962 (2005) 19 (2017) 192 24 30 40 46 108 302 340 423 699
2019-12-09 11:30 5.86 228 962 (2005) 19 (2017) 192 24 30 40 46 108 302 340 423 699
2019-12-09 10:30 5.87 230 962 (2005) 19 (2017) 192 24 30 40 46 108 302 340 423 699
2019-12-09 09:30 5.86 228 962 (2005) 19 (2017) 192 24 30 40 46 108 302 340 423 699
2019-12-09 08:30 5.87 230 962 (2005) 19 (2017) 192 24 30 40 46 108 302 340 423 699
2019-12-09 07:30 5.87 230 962 (2005) 19 (2017) 192 24 30 40 46 108 302 340 423 699
2019-12-09 06:30 5.88 233 962 (2005) 19 (2017) 192 24 30 40 46 108 302 340 423 699
2019-12-09 05:30 5.87 230 962 (2005) 19 (2017) 192 24 30 40 46 108 302 340 423 699
2019-12-09 04:30 5.89 235 962 (2005) 19 (2017) 192 24 30 40 46 108 302 340 423 699
2019-12-09 03:30 5.88 233 962 (2005) 19 (2017) 192 24 30 40 46 108 302 340 423 699
2019-12-09 02:30 5.88 233 962 (2005) 19 (2017) 192 24 30 40 46 108 302 340 423 699
2019-12-09 01:30 5.88 233 962 (2005) 19 (2017) 192 24 30 40 46 108 302 340 423 699
2019-12-09 00:30 5.88 233 962 (2005) 19 (2017) 192 24 30 40 46 108 302 340 423 699
2019-12-08 23:30 5.89 235 1110 (2005) 19 (2017) 203 24 28 39 43 110 304 358 452 837
2019-12-08 22:30 5.89 235 1110 (2005) 19 (2017) 203 24 28 39 43 110 304 358 452 837
2019-12-08 21:30 5.90 238 1110 (2005) 19 (2017) 203 24 28 39 43 110 304 358 452 837
2019-12-08 20:30 5.90 238 1110 (2005) 19 (2017) 203 24 28 39 43 110 304 358 452 837
2019-12-08 19:30 5.90 238 1110 (2005) 19 (2017) 203 24 28 39 43 110 304 358 452 837
2019-12-08 18:30 5.90 238 1110 (2005) 19 (2017) 203 24 28 39 43 110 304 358 452 837
2019-12-08 17:30 5.90 238 1110 (2005) 19 (2017) 203 24 28 39 43 110 304 358 452 837
2019-12-08 16:30 5.90 238 1110 (2005) 19 (2017) 203 24 28 39 43 110 304 358 452 837
2019-12-08 15:30 5.91 240 1110 (2005) 19 (2017) 203 24 28 39 43 110 304 358 452 837
2019-12-08 14:30 5.91 240 1110 (2005) 19 (2017) 203 24 28 39 43 110 304 358 452 837
2019-12-08 13:30 5.91 240 1110 (2005) 19 (2017) 203 24 28 39 43 110 304 358 452 837
2019-12-08 12:30 5.91 240 1110 (2005) 19 (2017) 203 24 28 39 43 110 304 358 452 837
2019-12-08 11:30 5.92 243 1110 (2005) 19 (2017) 203 24 28 39 43 110 304 358 452 837
2019-12-08 10:30 5.92 243 1110 (2005) 19 (2017) 203 24 28 39 43 110 304 358 452 837
2019-12-08 09:30 5.92 243 1110 (2005) 19 (2017) 203 24 28 39 43 110 304 358 452 837
2019-12-08 08:30 5.92 243 1110 (2005) 19 (2017) 203 24 28 39 43 110 304 358 452 837
2019-12-08 07:30 5.92 243 1110 (2005) 19 (2017) 203 24 28 39 43 110 304 358 452 837
2019-12-08 06:30 5.92 243 1110 (2005) 19 (2017) 203 24 28 39 43 110 304 358 452 837
2019-12-08 05:30 5.93 245 1110 (2005) 19 (2017) 203 24 28 39 43 110 304 358 452 837
2019-12-08 04:30 5.93 245 1110 (2005) 19 (2017) 203 24 28 39 43 110 304 358 452 837
2019-12-08 03:30 5.93 245 1110 (2005) 19 (2017) 203 24 28 39 43 110 304 358 452 837
2019-12-08 02:30 5.93 245 1110 (2005) 19 (2017) 203 24 28 39 43 110 304 358 452 837
2019-12-08 01:30 5.94 248 1110 (2005) 19 (2017) 203 24 28 39 43 110 304 358 452 837
2019-12-08 00:30 5.94 248 1110 (2005) 19 (2017) 203 24 28 39 43 110 304 358 452 837
2019-12-07 23:30 5.94 248 1350 (2005) 19 (2017) 223 21 26 39 42 118 326 384 496 1050
2019-12-07 22:30 5.93 245 1350 (2005) 19 (2017) 223 21 26 39 42 118 326 384 496 1050
2019-12-07 21:30 5.95 250 1350 (2005) 19 (2017) 223 21 26 39 42 118 326 384 496 1050
2019-12-07 20:30 5.95 250 1350 (2005) 19 (2017) 223 21 26 39 42 118 326 384 496 1050
2019-12-07 19:30 5.96 253 1350 (2005) 19 (2017) 223 21 26 39 42 118 326 384 496 1050
2019-12-07 18:30 5.96 253 1350 (2005) 19 (2017) 223 21 26 39 42 118 326 384 496 1050
2019-12-07 17:30 5.95 250 1350 (2005) 19 (2017) 223 21 26 39 42 118 326 384 496 1050
2019-12-07 16:30 5.96 253 1350 (2005) 19 (2017) 223 21 26 39 42 118 326 384 496 1050
2019-12-07 15:30 5.96 253 1350 (2005) 19 (2017) 223 21 26 39 42 118 326 384 496 1050
2019-12-07 14:30 5.97 255 1350 (2005) 19 (2017) 223 21 26 39 42 118 326 384 496 1050
2019-12-07 13:30 5.97 255 1350 (2005) 19 (2017) 223 21 26 39 42 118 326 384 496 1050
2019-12-07 12:30 5.97 255 1350 (2005) 19 (2017) 223 21 26 39 42 118 326 384 496 1050
2019-12-07 11:30 5.98 258 1350 (2005) 19 (2017) 223 21 26 39 42 118 326 384 496 1050
2019-12-07 10:30 5.99 261 1350 (2005) 19 (2017) 223 21 26 39 42 118 326 384 496 1050
2019-12-07 09:30 5.98 258 1350 (2005) 19 (2017) 223 21 26 39 42 118 326 384 496 1050
2019-12-07 08:30 5.99 261 1350 (2005) 19 (2017) 223 21 26 39 42 118 326 384 496 1050
2019-12-07 07:30 5.99 261 1350 (2005) 19 (2017) 223 21 26 39 42 118 326 384 496 1050
2019-12-07 06:30 5.99 261 1350 (2005) 19 (2017) 223 21 26 39 42 118 326 384 496 1050
2019-12-07 05:30 6.00 263 1350 (2005) 19 (2017) 223 21 26 39 42 118 326 384 496 1050
2019-12-07 04:30 6.01 266 1350 (2005) 19 (2017) 223 21 26 39 42 118 326 384 496 1050
2019-12-07 03:30 6.01 266 1350 (2005) 19 (2017) 223 21 26 39 42 118 326 384 496 1050
2019-12-07 02:30 6.01 266 1350 (2005) 19 (2017) 223 21 26 39 42 118 326 384 496 1050
2019-12-07 01:30 6.02 269 1350 (2005) 19 (2017) 223 21 26 39 42 118 326 384 496 1050
2019-12-07 00:30 6.03 271 1350 (2005) 19 (2017) 223 21 26 39 42 118 326 384 496 1050
2019-12-06 23:30 6.03 271 1370 (1974) 20 (2017) 229 22 28 39 42 119 315 398 549 918
2019-12-06 22:30 6.03 271 1370 (1974) 20 (2017) 229 22 28 39 42 119 315 398 549 918
2019-12-06 21:30 6.03 271 1370 (1974) 20 (2017) 229 22 28 39 42 119 315 398 549 918
2019-12-06 20:30 6.03 271 1370 (1974) 20 (2017) 229 22 28 39 42 119 315 398 549 918
2019-12-06 19:30 6.04 274 1370 (1974) 20 (2017) 229 22 28 39 42 119 315 398 549 918
2019-12-06 18:30 6.04 274 1370 (1974) 20 (2017) 229 22 28 39 42 119 315 398 549 918
2019-12-06 17:30 6.05 277 1370 (1974) 20 (2017) 229 22 28 39 42 119 315 398 549 918
2019-12-06 16:30 6.05 277 1370 (1974) 20 (2017) 229 22 28 39 42 119 315 398 549 918
2019-12-06 15:30 6.06 280 1370 (1974) 20 (2017) 229 22 28 39 42 119 315 398 549 918
2019-12-06 14:30 6.07 282 1370 (1974) 20 (2017) 229 22 28 39 42 119 315 398 549 918
2019-12-06 13:30 6.08 285 1370 (1974) 20 (2017) 229 22 28 39 42 119 315 398 549 918
2019-12-06 12:30 6.08 285 1370 (1974) 20 (2017) 229 22 28 39 42 119 315 398 549 918
2019-12-06 11:30 6.09 288 1370 (1974) 20 (2017) 229 22 28 39 42 119 315 398 549 918
2019-12-06 10:30 6.09 288 1370 (1974) 20 (2017) 229 22 28 39 42 119 315 398 549 918
2019-12-06 09:30 6.09 288 1370 (1974) 20 (2017) 229 22 28 39 42 119 315 398 549 918
2019-12-06 08:30 6.09 288 1370 (1974) 20 (2017) 229 22 28 39 42 119 315 398 549 918
2019-12-06 07:30 6.10 291 1370 (1974) 20 (2017) 229 22 28 39 42 119 315 398 549 918
2019-12-06 06:30 6.10 291 1370 (1974) 20 (2017) 229 22 28 39 42 119 315 398 549 918
2019-12-06 05:30 6.10 291 1370 (1974) 20 (2017) 229 22 28 39 42 119 315 398 549 918
2019-12-06 04:30 6.11 294 1370 (1974) 20 (2017) 229 22 28 39 42 119 315 398 549 918
2019-12-06 03:30 6.12 297 1370 (1974) 20 (2017) 229 22 28 39 42 119 315 398 549 918
2019-12-06 02:30 6.13 299 1370 (1974) 20 (2017) 229 22 28 39 42 119 315 398 549 918
2019-12-06 01:30 6.13 299 1370 (1974) 20 (2017) 229 22 28 39 42 119 315 398 549 918
2019-12-06 00:30 6.13 299 1370 (1974) 20 (2017) 229 22 28 39 42 119 315 398 549 918

A total of 174 rows are displayed for years 1966 through 2018.

Trips for Turnback Creek (Missouri), Greenfield (06918460)

DateStartEndDistanceConditionDischargeHeightFishingDetails
Click for details2019-07-02 Dilday Mill Access Dilday Mill Access Total trip distance: 4.5 miles4.5 Good 0 13.69 Poor NoneNone Van Someren, TomVan Someren, Tom On a whim, I decided to explore a section of Turnback Creek to determine it's suitability and attractiveness for future floating and fishing. I paddled 2.25 miles upstream from Dilday Mill Access. Unfortunately, the stream was rather murky. I thought that might just be because the water usually is cloudier nearer a dammed up area. But even 2 miles upstream from the Dilday Mill dam there never was more than 1.5 foot visibility into the water. While the stream was relatively clear of obstructions it's banks had tons of old river detritus that has accumulated over the years. Very little wildlife was observed. Only one turtle was spotted and I only saw one fish make an appearance below the water. Speaking with some of the locals, they also confirmed the creek wasn't really noted for good fishing. Based on this section alone though, it could be a fun river to do for technical navigation purposes. Because the stream seemed to twist and turn around each bend. And the section above Fiddler's Ford Access appears to have this characteristic on Google maps.On a whim, I decided to explore a section of Turnback Creek to determine it's suitability and attractiveness for future floating and fishing. I paddled 2.25 miles upstream from Dilday Mill Access. Unfortunately, the stream was rather murky. I thought that might just be because the water usually is cloudier nearer a dammed up area. But even 2 miles upstream from the Dilday Mill dam there never was more than 1.5 foot visibility into the water. While the stream was relatively clear of obstructions it's banks had tons of old river detritus that has accumulated over the years. Very little wildlife was observed. Only one turtle was spotted and I only saw one fish make an appearance below the water. Speaking with some of the locals, they also confirmed the creek wasn't really noted for good fishing. Based on this section alone though, it could be a fun river to do for technical navigation purposes. Because the stream seemed to twist and turn around each bend. And the section above Fiddler's Ford Access appears to have this characteristic on Google maps. USGS Gauge Data:
Greenfield (06918460)
Discharge: 0
Height: 13.69
<b>USGS Gauge Data:</b></br />Greenfield (06918460)<br />Discharge: 0<br />Height: 13.69
Source: Van SomerenSource: Van Someren

A total of 1 rows are displayed.

Trip Summary for Turnback Creek (Missouri), Greenfield (06918460)

Miles4.5
Trips1
People1
Dates1
Years1
Months1
Rows1
Sources1

Condition Descriptions

Fishing Conditions

Fish Species

Notes

Classic Trip List

The classic River Trips application is still available for use. It is updated with the new system using a data retrofit. It is no longer maintained. The original River Trips application is no longer updated (as of 1 Dec 2016) but can be checked for errors or for the condition of the data before it was converted to the new system.